sensor_id;sensor_type;location;lat;lon;timestamp;temperature;humidity
35541;DHT22;21650;48.840;9.162;2024-01-11T00:00:08;-4.40;99.90
35541;DHT22;21650;48.840;9.162;2024-01-11T00:02:34;-4.40;99.90
35541;DHT22;21650;48.840;9.162;2024-01-11T00:05:00;-4.50;99.90
35541;DHT22;21650;48.840;9.162;2024-01-11T00:07:26;-4.50;99.90
35541;DHT22;21650;48.840;9.162;2024-01-11T00:09:51;-4.50;99.90
35541;DHT22;21650;48.840;9.162;2024-01-11T00:12:17;-4.40;99.90
35541;DHT22;21650;48.840;9.162;2024-01-11T00:14:42;-4.40;99.90
35541;DHT22;21650;48.840;9.162;2024-01-11T00:17:08;-4.30;99.90
35541;DHT22;21650;48.840;9.162;2024-01-11T00:19:33;-4.30;99.90
35541;DHT22;21650;48.840;9.162;2024-01-11T00:21:59;-4.30;99.90
35541;DHT22;21650;48.840;9.162;2024-01-11T00:24:24;-4.40;99.90
35541;DHT22;21650;48.840;9.162;2024-01-11T00:26:50;-4.50;99.90
35541;DHT22;21650;48.840;9.162;2024-01-11T00:29:15;-4.60;99.90
35541;DHT22;21650;48.840;9.162;2024-01-11T00:31:41;-4.60;99.90
35541;DHT22;21650;48.840;9.162;2024-01-11T00:34:07;-4.60;99.90
35541;DHT22;21650;48.840;9.162;2024-01-11T00:36:32;-4.70;99.90
35541;DHT22;21650;48.840;9.162;2024-01-11T00:38:58;-4.60;99.90
35541;DHT22;21650;48.840;9.162;2024-01-11T00:41:25;-4.60;99.90
35541;DHT22;21650;48.840;9.162;2024-01-11T00:43:51;-4.60;99.90
35541;DHT22;21650;48.840;9.162;2024-01-11T00:46:16;-4.70;99.90
35541;DHT22;21650;48.840;9.162;2024-01-11T00:48:42;-4.60;99.90
35541;DHT22;21650;48.840;9.162;2024-01-11T00:51:07;-4.60;99.90
35541;DHT22;21650;48.840;9.162;2024-01-11T00:53:33;-4.80;99.90
35541;DHT22;21650;48.840;9.162;2024-01-11T00:56:02;-4.70;99.90
35541;DHT22;21650;48.840;9.162;2024-01-11T00:58:27;-4.80;99.90
35541;DHT22;21650;48.840;9.162;2024-01-11T01:00:53;-4.70;99.90
35541;DHT22;21650;48.840;9.162;2024-01-11T01:03:20;-4.70;99.90
35541;DHT22;21650;48.840;9.162;2024-01-11T01:05:46;-4.60;99.90
35541;DHT22;21650;48.840;9.162;2024-01-11T01:08:12;-4.60;99.90
35541;DHT22;21650;48.840;9.162;2024-01-11T01:10:38;-4.60;99.90
35541;DHT22;21650;48.840;9.162;2024-01-11T01:13:04;-4.60;99.90
35541;DHT22;21650;48.840;9.162;2024-01-11T01:15:29;-4.60;99.90
35541;DHT22;21650;48.840;9.162;2024-01-11T01:17:55;-4.70;99.90
35541;DHT22;21650;48.840;9.162;2024-01-11T01:20:21;-4.60;99.90
35541;DHT22;21650;48.840;9.162;2024-01-11T01:22:47;-4.70;99.90
35541;DHT22;21650;48.840;9.162;2024-01-11T01:25:12;-4.70;99.90
35541;DHT22;21650;48.840;9.162;2024-01-11T01:27:38;-4.70;99.90
35541;DHT22;21650;48.840;9.162;2024-01-11T01:30:04;-4.70;99.90
35541;DHT22;21650;48.840;9.162;2024-01-11T01:32:30;-4.80;99.90
35541;DHT22;21650;48.840;9.162;2024-01-11T01:34:56;-4.80;99.90
35541;DHT22;21650;48.840;9.162;2024-01-11T01:37:21;-4.70;99.90
35541;DHT22;21650;48.840;9.162;2024-01-11T01:39:47;-4.70;99.90
35541;DHT22;21650;48.840;9.162;2024-01-11T01:42:12;-4.80;99.90
35541;DHT22;21650;48.840;9.162;2024-01-11T01:44:38;-4.80;99.90
35541;DHT22;21650;48.840;9.162;2024-01-11T01:47:06;-4.80;99.90
35541;DHT22;21650;48.840;9.162;2024-01-11T01:49:33;-4.80;99.90
35541;DHT22;21650;48.840;9.162;2024-01-11T01:51:59;-4.90;99.90
35541;DHT22;21650;48.840;9.162;2024-01-11T01:54:24;-4.90;99.90
35541;DHT22;21650;48.840;9.162;2024-01-11T01:56:51;-4.90;99.90
35541;DHT22;21650;48.840;9.162;2024-01-11T01:59:18;-4.80;99.90
35541;DHT22;21650;48.840;9.162;2024-01-11T02:01:44;-4.90;99.90
35541;DHT22;21650;48.840;9.162;2024-01-11T02:04:10;-4.80;99.90
35541;DHT22;21650;48.840;9.162;2024-01-11T02:06:36;-4.90;99.90
35541;DHT22;21650;48.840;9.162;2024-01-11T02:09:02;-4.90;99.90
35541;DHT22;21650;48.840;9.162;2024-01-11T02:11:30;-4.90;99.90
35541;DHT22;21650;48.840;9.162;2024-01-11T02:13:56;-4.90;99.90
35541;DHT22;21650;48.840;9.162;2024-01-11T02:16:25;-5.00;99.90
35541;DHT22;21650;48.840;9.162;2024-01-11T02:18:51;-5.00;99.90
35541;DHT22;21650;48.840;9.162;2024-01-11T02:21:17;-4.90;99.90
35541;DHT22;21650;48.840;9.162;2024-01-11T02:23:44;-5.00;99.90
35541;DHT22;21650;48.840;9.162;2024-01-11T02:26:13;-5.00;99.90
35541;DHT22;21650;48.840;9.162;2024-01-11T02:28:46;-4.90;99.90
35541;DHT22;21650;48.840;9.162;2024-01-11T02:31:13;-4.90;99.90
35541;DHT22;21650;48.840;9.162;2024-01-11T02:33:39;-5.10;99.90
35541;DHT22;21650;48.840;9.162;2024-01-11T02:36:06;-5.00;99.90
35541;DHT22;21650;48.840;9.162;2024-01-11T02:38:33;-5.10;99.90
35541;DHT22;21650;48.840;9.162;2024-01-11T02:40:59;-5.00;99.90
35541;DHT22;21650;48.840;9.162;2024-01-11T02:43:25;-4.90;99.90
35541;DHT22;21650;48.840;9.162;2024-01-11T02:45:54;-4.90;99.90
35541;DHT22;21650;48.840;9.162;2024-01-11T02:48:20;-5.00;99.90
35541;DHT22;21650;48.840;9.162;2024-01-11T02:50:48;-5.00;99.90
35541;DHT22;21650;48.840;9.162;2024-01-11T02:53:13;-5.00;99.90
35541;DHT22;21650;48.840;9.162;2024-01-11T02:55:39;-4.90;99.90
35541;DHT22;21650;48.840;9.162;2024-01-11T02:58:04;-4.90;99.90
35541;DHT22;21650;48.840;9.162;2024-01-11T03:00:30;-5.00;99.90
35541;DHT22;21650;48.840;9.162;2024-01-11T03:02:55;-5.10;99.90
35541;DHT22;21650;48.840;9.162;2024-01-11T03:05:21;-5.10;99.90
35541;DHT22;21650;48.840;9.162;2024-01-11T03:07:47;-5.00;99.90
35541;DHT22;21650;48.840;9.162;2024-01-11T03:10:12;-5.20;99.90
35541;DHT22;21650;48.840;9.162;2024-01-11T03:12:39;-5.20;99.90
35541;DHT22;21650;48.840;9.162;2024-01-11T03:15:05;-5.20;99.90
35541;DHT22;21650;48.840;9.162;2024-01-11T03:17:31;-5.10;99.90
35541;DHT22;21650;48.840;9.162;2024-01-11T03:19:57;-5.10;99.90
35541;DHT22;21650;48.840;9.162;2024-01-11T03:22:23;-5.20;99.90
35541;DHT22;21650;48.840;9.162;2024-01-11T03:24:48;-5.10;99.90
35541;DHT22;21650;48.840;9.162;2024-01-11T03:27:14;-5.20;99.90
35541;DHT22;21650;48.840;9.162;2024-01-11T03:29:39;-5.20;99.90
35541;DHT22;21650;48.840;9.162;2024-01-11T03:32:05;-5.10;99.90
35541;DHT22;21650;48.840;9.162;2024-01-11T03:34:31;-5.20;99.90
35541;DHT22;21650;48.840;9.162;2024-01-11T03:36:57;-5.20;99.90
35541;DHT22;21650;48.840;9.162;2024-01-11T03:39:23;-5.30;99.90
35541;DHT22;21650;48.840;9.162;2024-01-11T03:41:49;-5.40;99.90
35541;DHT22;21650;48.840;9.162;2024-01-11T03:44:14;-5.30;99.90
35541;DHT22;21650;48.840;9.162;2024-01-11T03:46:40;-5.20;99.90
35541;DHT22;21650;48.840;9.162;2024-01-11T03:49:05;-5.30;99.90
35541;DHT22;21650;48.840;9.162;2024-01-11T03:51:33;-5.30;99.90
35541;DHT22;21650;48.840;9.162;2024-01-11T03:53:58;-5.40;99.90
35541;DHT22;21650;48.840;9.162;2024-01-11T03:56:24;-5.30;99.90
35541;DHT22;21650;48.840;9.162;2024-01-11T03:58:50;-5.20;99.90
35541;DHT22;21650;48.840;9.162;2024-01-11T04:01:15;-5.10;99.90
35541;DHT22;21650;48.840;9.162;2024-01-11T04:03:42;-5.10;99.90
35541;DHT22;21650;48.840;9.162;2024-01-11T04:06:07;-5.20;99.90
35541;DHT22;21650;48.840;9.162;2024-01-11T04:08:33;-5.30;99.90
35541;DHT22;21650;48.840;9.162;2024-01-11T04:11:02;-5.30;99.90
35541;DHT22;21650;48.840;9.162;2024-01-11T04:13:28;-5.40;99.90
35541;DHT22;21650;48.840;9.162;2024-01-11T04:15:54;-5.30;99.90
35541;DHT22;21650;48.840;9.162;2024-01-11T04:18:19;-5.30;99.90
35541;DHT22;21650;48.840;9.162;2024-01-11T04:20:45;-5.30;99.90
35541;DHT22;21650;48.840;9.162;2024-01-11T04:23:10;-5.30;99.90
35541;DHT22;21650;48.840;9.162;2024-01-11T04:25:36;-5.40;99.90
35541;DHT22;21650;48.840;9.162;2024-01-11T04:28:02;-5.40;99.90
35541;DHT22;21650;48.840;9.162;2024-01-11T04:30:27;-5.30;99.90
35541;DHT22;21650;48.840;9.162;2024-01-11T04:32:53;-5.30;99.90
35541;DHT22;21650;48.840;9.162;2024-01-11T04:35:18;-5.30;99.90
35541;DHT22;21650;48.840;9.162;2024-01-11T04:37:44;-5.20;99.90
35541;DHT22;21650;48.840;9.162;2024-01-11T04:40:10;-5.30;99.90
35541;DHT22;21650;48.840;9.162;2024-01-11T04:42:35;-5.40;99.90
35541;DHT22;21650;48.840;9.162;2024-01-11T04:45:01;-5.30;99.90
35541;DHT22;21650;48.840;9.162;2024-01-11T04:47:26;-5.30;99.90
35541;DHT22;21650;48.840;9.162;2024-01-11T04:49:52;-5.20;99.90
35541;DHT22;21650;48.840;9.162;2024-01-11T04:52:18;-5.50;99.90
35541;DHT22;21650;48.840;9.162;2024-01-11T04:54:43;-5.50;99.90
35541;DHT22;21650;48.840;9.162;2024-01-11T04:57:09;-5.50;99.90
35541;DHT22;21650;48.840;9.162;2024-01-11T04:59:34;-5.60;99.90
35541;DHT22;21650;48.840;9.162;2024-01-11T05:02:00;-5.50;99.90
35541;DHT22;21650;48.840;9.162;2024-01-11T05:04:25;-5.50;99.90
35541;DHT22;21650;48.840;9.162;2024-01-11T05:06:51;-5.50;99.90
35541;DHT22;21650;48.840;9.162;2024-01-11T05:09:17;-5.50;99.90
35541;DHT22;21650;48.840;9.162;2024-01-11T05:11:42;-5.50;99.90
35541;DHT22;21650;48.840;9.162;2024-01-11T05:14:08;-5.50;99.90
35541;DHT22;21650;48.840;9.162;2024-01-11T05:16:33;-5.50;99.90
35541;DHT22;21650;48.840;9.162;2024-01-11T05:19:01;-5.40;99.90
35541;DHT22;21650;48.840;9.162;2024-01-11T05:21:26;-5.40;99.90
35541;DHT22;21650;48.840;9.162;2024-01-11T05:23:52;-5.60;99.90
35541;DHT22;21650;48.840;9.162;2024-01-11T05:26:18;-5.50;99.90
35541;DHT22;21650;48.840;9.162;2024-01-11T05:28:44;-5.50;99.90
35541;DHT22;21650;48.840;9.162;2024-01-11T05:31:11;-5.60;99.90
35541;DHT22;21650;48.840;9.162;2024-01-11T05:33:41;-5.70;99.90
35541;DHT22;21650;48.840;9.162;2024-01-11T05:36:07;-5.70;99.90
35541;DHT22;21650;48.840;9.162;2024-01-11T05:38:33;-5.70;99.90
35541;DHT22;21650;48.840;9.162;2024-01-11T05:41:00;-5.70;99.90
35541;DHT22;21650;48.840;9.162;2024-01-11T05:43:26;-5.70;99.90
35541;DHT22;21650;48.840;9.162;2024-01-11T05:45:52;-5.60;99.90
35541;DHT22;21650;48.840;9.162;2024-01-11T05:48:17;-5.60;99.90
35541;DHT22;21650;48.840;9.162;2024-01-11T05:50:46;-5.60;99.90
35541;DHT22;21650;48.840;9.162;2024-01-11T05:53:12;-5.60;99.90
35541;DHT22;21650;48.840;9.162;2024-01-11T05:55:38;-5.60;99.90
35541;DHT22;21650;48.840;9.162;2024-01-11T05:58:04;-5.50;99.90
35541;DHT22;21650;48.840;9.162;2024-01-11T06:00:30;-5.60;99.90
35541;DHT22;21650;48.840;9.162;2024-01-11T06:02:55;-5.70;99.90
35541;DHT22;21650;48.840;9.162;2024-01-11T06:05:21;-5.70;99.90
35541;DHT22;21650;48.840;9.162;2024-01-11T06:07:46;-5.60;99.90
35541;DHT22;21650;48.840;9.162;2024-01-11T06:10:13;-5.60;99.90
35541;DHT22;21650;48.840;9.162;2024-01-11T06:12:39;-5.70;99.90
35541;DHT22;21650;48.840;9.162;2024-01-11T06:15:05;-5.60;99.90
35541;DHT22;21650;48.840;9.162;2024-01-11T06:17:31;-5.60;99.90
35541;DHT22;21650;48.840;9.162;2024-01-11T06:19:57;-5.60;99.90
35541;DHT22;21650;48.840;9.162;2024-01-11T06:22:22;-5.70;99.90
35541;DHT22;21650;48.840;9.162;2024-01-11T06:24:48;-5.70;99.90
35541;DHT22;21650;48.840;9.162;2024-01-11T06:27:14;-5.70;99.90
35541;DHT22;21650;48.840;9.162;2024-01-11T06:29:39;-5.60;99.90
35541;DHT22;21650;48.840;9.162;2024-01-11T06:32:05;-5.70;99.90
35541;DHT22;21650;48.840;9.162;2024-01-11T06:34:31;-5.60;99.90
35541;DHT22;21650;48.840;9.162;2024-01-11T06:36:57;-5.60;99.90
35541;DHT22;21650;48.840;9.162;2024-01-11T06:39:22;-5.70;99.90
35541;DHT22;21650;48.840;9.162;2024-01-11T06:41:48;-5.60;99.90
35541;DHT22;21650;48.840;9.162;2024-01-11T06:44:13;-5.50;99.90
35541;DHT22;21650;48.840;9.162;2024-01-11T06:46:39;-5.40;99.90
35541;DHT22;21650;48.840;9.162;2024-01-11T06:49:07;-5.50;99.90
35541;DHT22;21650;48.840;9.162;2024-01-11T06:51:32;-5.50;99.90
35541;DHT22;21650;48.840;9.162;2024-01-11T06:53:59;-5.50;99.90
35541;DHT22;21650;48.840;9.162;2024-01-11T06:56:26;-5.50;99.90
35541;DHT22;21650;48.840;9.162;2024-01-11T06:58:52;-5.50;99.90
35541;DHT22;21650;48.840;9.162;2024-01-11T07:01:18;-5.50;99.90
35541;DHT22;21650;48.840;9.162;2024-01-11T07:03:44;-5.60;99.90
35541;DHT22;21650;48.840;9.162;2024-01-11T07:06:10;-5.50;99.90
35541;DHT22;21650;48.840;9.162;2024-01-11T07:08:35;-5.60;99.90
35541;DHT22;21650;48.840;9.162;2024-01-11T07:11:01;-5.60;99.90
35541;DHT22;21650;48.840;9.162;2024-01-11T07:13:30;-5.60;99.90
35541;DHT22;21650;48.840;9.162;2024-01-11T07:15:59;-5.70;99.90
35541;DHT22;21650;48.840;9.162;2024-01-11T07:18:25;-5.60;99.90
35541;DHT22;21650;48.840;9.162;2024-01-11T07:20:52;-5.70;99.90
35541;DHT22;21650;48.840;9.162;2024-01-11T07:23:18;-5.60;99.90
35541;DHT22;21650;48.840;9.162;2024-01-11T07:25:43;-5.50;99.90
35541;DHT22;21650;48.840;9.162;2024-01-11T07:28:09;-5.60;99.90
35541;DHT22;21650;48.840;9.162;2024-01-11T07:30:35;-5.50;99.90
35541;DHT22;21650;48.840;9.162;2024-01-11T07:33:01;-5.50;99.90
35541;DHT22;21650;48.840;9.162;2024-01-11T07:35:27;-5.50;99.90
35541;DHT22;21650;48.840;9.162;2024-01-11T07:37:52;-5.50;99.90
35541;DHT22;21650;48.840;9.162;2024-01-11T07:40:18;-5.40;99.90
35541;DHT22;21650;48.840;9.162;2024-01-11T07:42:44;-5.50;99.90
35541;DHT22;21650;48.840;9.162;2024-01-11T07:45:11;-5.40;99.90
35541;DHT22;21650;48.840;9.162;2024-01-11T07:47:36;-5.50;99.90
35541;DHT22;21650;48.840;9.162;2024-01-11T07:50:04;-5.50;99.90
35541;DHT22;21650;48.840;9.162;2024-01-11T07:52:32;-5.40;99.90
35541;DHT22;21650;48.840;9.162;2024-01-11T07:54:57;-5.40;99.90
35541;DHT22;21650;48.840;9.162;2024-01-11T07:57:25;-5.30;99.90
35541;DHT22;21650;48.840;9.162;2024-01-11T07:59:51;-5.40;99.90
35541;DHT22;21650;48.840;9.162;2024-01-11T08:02:16;-5.30;99.90
35541;DHT22;21650;48.840;9.162;2024-01-11T08:04:42;-5.30;99.90
35541;DHT22;21650;48.840;9.162;2024-01-11T08:07:07;-5.10;99.90
35541;DHT22;21650;48.840;9.162;2024-01-11T08:09:33;-5.10;99.90
35541;DHT22;21650;48.840;9.162;2024-01-11T08:11:58;-5.00;99.90
35541;DHT22;21650;48.840;9.162;2024-01-11T08:14:24;-5.00;99.90
35541;DHT22;21650;48.840;9.162;2024-01-11T08:16:50;-5.00;99.90
35541;DHT22;21650;48.840;9.162;2024-01-11T08:19:15;-4.90;99.90
35541;DHT22;21650;48.840;9.162;2024-01-11T08:21:42;-4.90;99.90
35541;DHT22;21650;48.840;9.162;2024-01-11T08:24:08;-4.80;99.90
35541;DHT22;21650;48.840;9.162;2024-01-11T08:26:34;-4.80;99.90
35541;DHT22;21650;48.840;9.162;2024-01-11T08:28:59;-4.90;99.90
35541;DHT22;21650;48.840;9.162;2024-01-11T08:31:25;-4.80;99.90
35541;DHT22;21650;48.840;9.162;2024-01-11T08:33:51;-4.80;99.90
35541;DHT22;21650;48.840;9.162;2024-01-11T08:36:16;-4.70;99.90
35541;DHT22;21650;48.840;9.162;2024-01-11T08:38:42;-4.70;99.90
35541;DHT22;21650;48.840;9.162;2024-01-11T08:41:08;-4.70;99.90
35541;DHT22;21650;48.840;9.162;2024-01-11T08:43:33;-4.60;99.90
35541;DHT22;21650;48.840;9.162;2024-01-11T08:45:59;-4.60;99.90
35541;DHT22;21650;48.840;9.162;2024-01-11T08:48:25;-4.50;99.90
35541;DHT22;21650;48.840;9.162;2024-01-11T08:50:51;-4.50;99.90
35541;DHT22;21650;48.840;9.162;2024-01-11T08:53:16;-4.50;99.90
35541;DHT22;21650;48.840;9.162;2024-01-11T08:55:43;-4.40;99.90
35541;DHT22;21650;48.840;9.162;2024-01-11T08:58:09;-4.40;99.90
35541;DHT22;21650;48.840;9.162;2024-01-11T09:00:36;-4.40;99.90
35541;DHT22;21650;48.840;9.162;2024-01-11T09:03:02;-4.40;99.90
35541;DHT22;21650;48.840;9.162;2024-01-11T09:05:28;-4.30;99.90
35541;DHT22;21650;48.840;9.162;2024-01-11T09:07:53;-4.20;99.90
35541;DHT22;21650;48.840;9.162;2024-01-11T09:10:19;-4.20;99.90
35541;DHT22;21650;48.840;9.162;2024-01-11T09:12:44;-4.10;99.90
35541;DHT22;21650;48.840;9.162;2024-01-11T09:15:11;-4.10;99.90
35541;DHT22;21650;48.840;9.162;2024-01-11T09:17:36;-4.00;99.90
35541;DHT22;21650;48.840;9.162;2024-01-11T09:20:03;-3.90;99.90
35541;DHT22;21650;48.840;9.162;2024-01-11T09:22:29;-3.90;99.90
35541;DHT22;21650;48.840;9.162;2024-01-11T09:24:54;-3.80;99.90
35541;DHT22;21650;48.840;9.162;2024-01-11T09:27:20;-3.70;99.90
35541;DHT22;21650;48.840;9.162;2024-01-11T09:29:46;-3.70;99.90
35541;DHT22;21650;48.840;9.162;2024-01-11T09:32:12;-3.70;99.90
35541;DHT22;21650;48.840;9.162;2024-01-11T09:34:38;-3.60;99.90
35541;DHT22;21650;48.840;9.162;2024-01-11T09:37:04;-3.60;99.90
35541;DHT22;21650;48.840;9.162;2024-01-11T09:39:30;-3.60;99.90
35541;DHT22;21650;48.840;9.162;2024-01-11T09:42:04;-3.60;99.90
35541;DHT22;21650;48.840;9.162;2024-01-11T09:44:33;-3.50;99.90
35541;DHT22;21650;48.840;9.162;2024-01-11T09:47:00;-3.50;99.90
35541;DHT22;21650;48.840;9.162;2024-01-11T09:49:27;-3.40;99.90
35541;DHT22;21650;48.840;9.162;2024-01-11T09:51:55;-3.40;99.90
35541;DHT22;21650;48.840;9.162;2024-01-11T09:54:23;-3.30;99.90
35541;DHT22;21650;48.840;9.162;2024-01-11T09:56:50;-3.30;99.90
35541;DHT22;21650;48.840;9.162;2024-01-11T09:59:20;-3.30;99.90
35541;DHT22;21650;48.840;9.162;2024-01-11T10:01:47;-3.30;99.90
35541;DHT22;21650;48.840;9.162;2024-01-11T10:04:14;-3.30;99.90
35541;DHT22;21650;48.840;9.162;2024-01-11T10:06:42;-3.20;99.90
35541;DHT22;21650;48.840;9.162;2024-01-11T10:09:08;-3.20;99.90
35541;DHT22;21650;48.840;9.162;2024-01-11T10:11:34;-3.10;99.90
35541;DHT22;21650;48.840;9.162;2024-01-11T10:14:03;-3.10;99.90
35541;DHT22;21650;48.840;9.162;2024-01-11T10:16:30;-3.00;99.90
35541;DHT22;21650;48.840;9.162;2024-01-11T10:18:56;-3.00;99.90
35541;DHT22;21650;48.840;9.162;2024-01-11T10:21:23;-2.90;99.90
35541;DHT22;21650;48.840;9.162;2024-01-11T10:23:50;-2.90;99.90
35541;DHT22;21650;48.840;9.162;2024-01-11T10:26:16;-2.90;99.90
35541;DHT22;21650;48.840;9.162;2024-01-11T10:28:46;-2.90;99.90
35541;DHT22;21650;48.840;9.162;2024-01-11T10:31:12;-2.90;99.90
35541;DHT22;21650;48.840;9.162;2024-01-11T10:33:40;-2.80;99.90
35541;DHT22;21650;48.840;9.162;2024-01-11T10:36:06;-2.70;99.90
35541;DHT22;21650;48.840;9.162;2024-01-11T10:38:36;-2.70;99.90
35541;DHT22;21650;48.840;9.162;2024-01-11T10:41:05;-2.70;99.90
35541;DHT22;21650;48.840;9.162;2024-01-11T10:43:32;-2.70;99.90
35541;DHT22;21650;48.840;9.162;2024-01-11T10:46:00;-2.70;99.90
35541;DHT22;21650;48.840;9.162;2024-01-11T10:48:31;-2.60;99.90
35541;DHT22;21650;48.840;9.162;2024-01-11T10:51:01;-2.60;99.90
35541;DHT22;21650;48.840;9.162;2024-01-11T10:53:45;-2.50;99.90
35541;DHT22;21650;48.840;9.162;2024-01-11T10:56:15;-2.40;99.90
35541;DHT22;21650;48.840;9.162;2024-01-11T10:58:44;-2.30;99.90
35541;DHT22;21650;48.840;9.162;2024-01-11T11:01:11;-2.30;99.90
35541;DHT22;21650;48.840;9.162;2024-01-11T11:03:37;-2.10;99.90
35541;DHT22;21650;48.840;9.162;2024-01-11T11:06:05;-2.10;99.90
35541;DHT22;21650;48.840;9.162;2024-01-11T11:08:32;-2.00;99.90
35541;DHT22;21650;48.840;9.162;2024-01-11T11:10:59;-2.00;99.90
35541;DHT22;21650;48.840;9.162;2024-01-11T11:13:26;-2.00;99.90
35541;DHT22;21650;48.840;9.162;2024-01-11T11:15:53;-2.00;99.90
35541;DHT22;21650;48.840;9.162;2024-01-11T11:18:19;-1.90;99.90
35541;DHT22;21650;48.840;9.162;2024-01-11T11:20:48;-1.80;99.90
35541;DHT22;21650;48.840;9.162;2024-01-11T11:23:18;-1.70;99.90
35541;DHT22;21650;48.840;9.162;2024-01-11T11:25:48;-1.70;99.90
35541;DHT22;21650;48.840;9.162;2024-01-11T11:28:15;-1.60;99.90
35541;DHT22;21650;48.840;9.162;2024-01-11T11:30:43;-1.60;99.90
35541;DHT22;21650;48.840;9.162;2024-01-11T11:33:23;-1.60;99.90
35541;DHT22;21650;48.840;9.162;2024-01-11T11:35:53;-1.60;99.90
35541;DHT22;21650;48.840;9.162;2024-01-11T11:38:27;-1.50;99.90
35541;DHT22;21650;48.840;9.162;2024-01-11T11:40:58;-1.40;99.90
35541;DHT22;21650;48.840;9.162;2024-01-11T11:43:26;-1.50;99.90
35541;DHT22;21650;48.840;9.162;2024-01-11T11:45:53;-1.50;99.90
35541;DHT22;21650;48.840;9.162;2024-01-11T11:51:14;-1.50;99.90
35541;DHT22;21650;48.840;9.162;2024-01-11T11:53:41;-1.40;99.90
35541;DHT22;21650;48.840;9.162;2024-01-11T11:56:08;-1.30;99.90
35541;DHT22;21650;48.840;9.162;2024-01-11T11:58:35;-1.40;99.90
35541;DHT22;21650;48.840;9.162;2024-01-11T12:01:01;-1.30;99.90
35541;DHT22;21650;48.840;9.162;2024-01-11T12:03:32;-1.30;99.90
35541;DHT22;21650;48.840;9.162;2024-01-11T12:05:59;-1.20;99.90
35541;DHT22;21650;48.840;9.162;2024-01-11T12:08:25;-1.20;99.90
35541;DHT22;21650;48.840;9.162;2024-01-11T12:10:53;-1.10;99.90
35541;DHT22;21650;48.840;9.162;2024-01-11T12:13:19;-1.20;99.90
35541;DHT22;21650;48.840;9.162;2024-01-11T12:15:46;-1.10;99.90
35541;DHT22;21650;48.840;9.162;2024-01-11T12:18:12;-0.80;99.90
35541;DHT22;21650;48.840;9.162;2024-01-11T12:20:37;-0.80;99.90
35541;DHT22;21650;48.840;9.162;2024-01-11T12:23:03;-0.80;99.90
35541;DHT22;21650;48.840;9.162;2024-01-11T12:25:30;-0.80;99.90
35541;DHT22;21650;48.840;9.162;2024-01-11T12:27:56;-0.90;99.90
35541;DHT22;21650;48.840;9.162;2024-01-11T12:30:26;-0.90;99.90
35541;DHT22;21650;48.840;9.162;2024-01-11T12:32:53;-0.80;99.90
35541;DHT22;21650;48.840;9.162;2024-01-11T12:35:19;-0.70;99.90
35541;DHT22;21650;48.840;9.162;2024-01-11T12:38:04;-0.60;99.90
35541;DHT22;21650;48.840;9.162;2024-01-11T12:40:34;-0.60;99.90
35541;DHT22;21650;48.840;9.162;2024-01-11T12:43:01;-0.70;99.90
35541;DHT22;21650;48.840;9.162;2024-01-11T12:45:26;-0.60;99.90
35541;DHT22;21650;48.840;9.162;2024-01-11T12:47:53;-0.60;99.90
35541;DHT22;21650;48.840;9.162;2024-01-11T12:50:20;-0.60;99.90
35541;DHT22;21650;48.840;9.162;2024-01-11T12:52:46;-0.70;99.90
35541;DHT22;21650;48.840;9.162;2024-01-11T12:55:18;-0.60;99.90
35541;DHT22;21650;48.840;9.162;2024-01-11T12:57:45;-0.50;99.90
35541;DHT22;21650;48.840;9.162;2024-01-11T13:00:12;-0.50;99.90
35541;DHT22;21650;48.840;9.162;2024-01-11T13:02:41;-0.50;99.90
35541;DHT22;21650;48.840;9.162;2024-01-11T13:05:09;-0.40;99.90
35541;DHT22;21650;48.840;9.162;2024-01-11T13:07:37;-0.40;99.90
35541;DHT22;21650;48.840;9.162;2024-01-11T13:10:03;-0.40;99.90
35541;DHT22;21650;48.840;9.162;2024-01-11T13:12:29;-0.30;99.90
35541;DHT22;21650;48.840;9.162;2024-01-11T13:14:55;-0.50;99.90
35541;DHT22;21650;48.840;9.162;2024-01-11T13:17:21;-0.50;99.90
35541;DHT22;21650;48.840;9.162;2024-01-11T13:19:47;-0.50;99.90
35541;DHT22;21650;48.840;9.162;2024-01-11T13:22:12;-0.40;99.90
35541;DHT22;21650;48.840;9.162;2024-01-11T13:24:38;-0.30;99.90
35541;DHT22;21650;48.840;9.162;2024-01-11T13:27:04;-0.20;99.90
35541;DHT22;21650;48.840;9.162;2024-01-11T13:29:30;-0.20;99.90
35541;DHT22;21650;48.840;9.162;2024-01-11T13:31:55;-0.30;99.90
35541;DHT22;21650;48.840;9.162;2024-01-11T13:34:21;-0.20;99.90
35541;DHT22;21650;48.840;9.162;2024-01-11T13:36:46;-0.20;99.90
35541;DHT22;21650;48.840;9.162;2024-01-11T13:39:12;-0.20;99.90
35541;DHT22;21650;48.840;9.162;2024-01-11T13:41:38;-0.10;99.90
35541;DHT22;21650;48.840;9.162;2024-01-11T13:44:06;-0.20;99.90
35541;DHT22;21650;48.840;9.162;2024-01-11T13:46:32;-0.20;99.90
35541;DHT22;21650;48.840;9.162;2024-01-11T13:48:58;-0.20;99.90
35541;DHT22;21650;48.840;9.162;2024-01-11T13:51:24;-0.30;99.90
35541;DHT22;21650;48.840;9.162;2024-01-11T13:53:49;-0.20;99.90
35541;DHT22;21650;48.840;9.162;2024-01-11T13:56:15;-0.30;99.90
35541;DHT22;21650;48.840;9.162;2024-01-11T13:58:40;-0.30;99.90
35541;DHT22;21650;48.840;9.162;2024-01-11T14:01:06;-0.20;99.90
35541;DHT22;21650;48.840;9.162;2024-01-11T14:03:33;-0.30;99.90
35541;DHT22;21650;48.840;9.162;2024-01-11T14:05:59;-0.30;99.90
35541;DHT22;21650;48.840;9.162;2024-01-11T14:08:25;-0.30;99.90
35541;DHT22;21650;48.840;9.162;2024-01-11T14:10:51;-0.20;99.90
35541;DHT22;21650;48.840;9.162;2024-01-11T14:13:17;-0.10;99.90
35541;DHT22;21650;48.840;9.162;2024-01-11T14:15:42;-0.20;99.90
35541;DHT22;21650;48.840;9.162;2024-01-11T14:18:08;-0.20;99.90
35541;DHT22;21650;48.840;9.162;2024-01-11T14:20:35;-0.10;99.90
35541;DHT22;21650;48.840;9.162;2024-01-11T14:23:00;-0.10;99.90
35541;DHT22;21650;48.840;9.162;2024-01-11T14:25:26;-0.10;99.90
35541;DHT22;21650;48.840;9.162;2024-01-11T14:27:52;-0.10;99.90
35541;DHT22;21650;48.840;9.162;2024-01-11T14:30:18;-0.20;99.90
35541;DHT22;21650;48.840;9.162;2024-01-11T14:32:44;-0.20;99.90
35541;DHT22;21650;48.840;9.162;2024-01-11T14:35:11;-0.20;99.90
35541;DHT22;21650;48.840;9.162;2024-01-11T14:37:37;-0.30;99.90
35541;DHT22;21650;48.840;9.162;2024-01-11T14:40:05;-0.40;99.90
35541;DHT22;21650;48.840;9.162;2024-01-11T14:42:31;-0.40;99.90
35541;DHT22;21650;48.840;9.162;2024-01-11T14:44:56;-0.40;99.90
35541;DHT22;21650;48.840;9.162;2024-01-11T14:47:22;-0.50;99.90
35541;DHT22;21650;48.840;9.162;2024-01-11T14:49:48;-0.50;99.90
35541;DHT22;21650;48.840;9.162;2024-01-11T14:52:14;-0.60;99.90
35541;DHT22;21650;48.840;9.162;2024-01-11T14:54:39;-0.60;99.90
35541;DHT22;21650;48.840;9.162;2024-01-11T14:57:05;-0.50;99.90
35541;DHT22;21650;48.840;9.162;2024-01-11T14:59:31;-0.60;99.90
35541;DHT22;21650;48.840;9.162;2024-01-11T15:01:59;-0.60;99.90
35541;DHT22;21650;48.840;9.162;2024-01-11T15:04:25;-0.60;99.90
35541;DHT22;21650;48.840;9.162;2024-01-11T15:06:51;-0.70;99.90
35541;DHT22;21650;48.840;9.162;2024-01-11T15:09:17;-0.70;99.90
35541;DHT22;21650;48.840;9.162;2024-01-11T15:11:42;-0.70;99.90
35541;DHT22;21650;48.840;9.162;2024-01-11T15:14:08;-0.70;99.90
35541;DHT22;21650;48.840;9.162;2024-01-11T15:16:37;-0.70;99.90
35541;DHT22;21650;48.840;9.162;2024-01-11T15:19:03;-0.70;99.90
35541;DHT22;21650;48.840;9.162;2024-01-11T15:21:29;-0.80;99.90
35541;DHT22;21650;48.840;9.162;2024-01-11T15:23:56;-0.80;99.90
35541;DHT22;21650;48.840;9.162;2024-01-11T15:26:22;-0.90;99.90